Time;durP1;ratioP1;P1;durP2;ratioP2;P2;SDS_P1;SDS_P2;PMS_P1;PMS_P2;Temp;Humidity;BMP_temperature;BMP_pressure;BME280_temperature;BME280_humidity;BME280_pressure;Samples;Min_cycle;Max_cycle;Signal;HPM_P1;HPM_P2
2021/04/05 00:01:46;;;;;;;13.27;3.17;;;22.10;97.80;;;;;;5016891;28;20574;-73
2021/04/05 00:04:13;;;;;;;15.45;3.90;;;22.30;99.10;;;;;;5015101;28;20057;-68
2021/04/05 00:06:40;;;;;;;11.23;3.47;;;22.20;98.70;;;;;;5022973;28;20151;-73
2021/04/05 00:09:06;;;;;;;11.88;3.45;;;22.10;98.60;;;;;;5022997;28;20025;-76
2021/04/05 00:11:34;;;;;;;13.07;4.22;;;22.30;96.70;;;;;;5014095;28;20519;-75
2021/04/05 00:14:01;;;;;;;19.45;4.10;;;22.20;97.70;;;;;;5022753;28;20044;-80
2021/04/05 00:16:27;;;;;;;19.10;4.07;;;22.10;98.30;;;;;;5018622;28;20749;-73
2021/04/05 00:18:54;;;;;;;13.05;3.90;;;22.30;98.50;;;;;;5022992;28;20050;-66
2021/04/05 00:21:22;;;;;;;13.52;3.67;;;22.00;97.90;;;;;;5018184;28;20079;-72
2021/04/05 00:23:52;;;;;;;25.25;4.47;;;21.90;96.70;;;;;;5017827;28;20109;-70
2021/04/05 00:26:20;;;;;;;15.50;4.60;;;21.90;98.90;;;;;;5016515;28;20037;-75
2021/04/05 00:28:47;;;;;;;16.88;4.88;;;22.10;99.90;;;;;;5021346;28;20017;-73
2021/04/05 00:31:13;;;;;;;21.77;4.85;;;22.30;99.90;;;;;;5012709;28;20026;-75
2021/04/05 00:33:40;;;;;;;21.58;4.07;;;22.00;99.90;;;;;;5013064;28;20096;-78
2021/04/05 00:36:07;;;;;;;22.88;5.25;;;21.90;99.90;;;;;;4991256;28;20036;-77
2021/04/05 00:38:34;;;;;;;24.73;4.70;;;21.90;99.90;;;;;;5022568;28;20132;-71
2021/04/05 00:41:06;;;;;;;21.80;4.43;;;21.70;99.90;;;;;;5014081;28;20091;-69
2021/04/05 00:43:35;;;;;;;15.95;4.45;;;21.60;99.90;;;;;;5013198;28;20034;-76
2021/04/05 00:46:03;;;;;;;13.77;4.57;;;21.60;99.90;;;;;;5012901;28;20586;-74
2021/04/05 00:48:29;;;;;;;18.73;5.50;;;21.40;99.90;;;;;;5021686;28;20544;-73
2021/04/05 00:50:59;;;;;;;23.17;5.13;;;21.10;99.90;;;;;;5020537;28;20093;-76
2021/04/05 00:53:34;;;;;;;22.67;4.63;;;21.10;99.90;;;;;;5021439;28;20032;-77
2021/04/05 00:56:01;;;;;;;16.80;4.60;;;21.10;99.90;;;;;;5006583;28;20041;-75
2021/04/05 00:58:28;;;;;;;18.63;4.93;;;21.00;99.90;;;;;;5023051;28;20040;-75
2021/04/05 01:01:02;;;;;;;23.17;5.55;;;20.70;99.90;;;;;;5000122;28;20049;-73
2021/04/05 01:03:33;;;;;;;24.45;6.70;;;20.90;99.90;;;;;;5023704;28;20071;-75
2021/04/05 01:06:20;;;;;;;19.08;4.60;;;20.60;99.90;;;;;;5018058;28;20504;-75
2021/04/05 01:08:47;;;;;;;19.00;4.25;;;20.60;99.90;;;;;;5019015;28;20053;-75
2021/04/05 01:11:17;;;;;;;18.45;4.70;;;20.50;99.90;;;;;;5022324;28;20064;-74
2021/04/05 01:13:44;;;;;;;22.67;4.53;;;20.30;99.90;;;;;;5016390;28;20022;-79
2021/04/05 01:16:11;;;;;;;26.10;4.95;;;20.20;99.90;;;;;;5021780;28;20477;-73
2021/04/05 01:18:39;;;;;;;20.52;5.57;;;20.10;99.90;;;;;;5014343;28;20057;-72
2021/04/05 01:21:07;;;;;;;19.55;4.65;;;20.00;99.90;;;;;;5019312;28;20841;-79
2021/04/05 01:23:34;;;;;;;14.73;4.07;;;20.10;99.90;;;;;;5019963;28;20068;-76
2021/04/05 01:26:00;;;;;;;21.13;4.50;;;19.80;99.90;;;;;;5018952;28;20033;-74
2021/04/05 01:28:27;;;;;;;15.90;3.78;;;19.60;99.90;;;;;;5014209;28;20025;-73
2021/04/05 01:30:57;;;;;;;18.20;3.90;;;19.40;99.90;;;;;;5014750;28;20036;-75
2021/04/05 01:33:32;;;;;;;21.40;6.25;;;19.40;99.90;;;;;;5017967;28;20036;-72
2021/04/05 01:36:00;;;;;;;23.65;4.57;;;19.20;99.90;;;;;;5014808;28;20026;-73
2021/04/05 01:38:42;;;;;;;33.63;5.60;;;19.20;99.90;;;;;;5014865;28;20021;-74
2021/04/05 01:41:17;;;;;;;28.80;5.47;;;19.00;99.90;;;;;;5011499;28;20132;-73
2021/04/05 01:43:43;;;;;;;15.40;4.72;;;18.90;99.90;;;;;;5015025;28;20476;-74
2021/04/05 01:46:13;;;;;;;13.50;3.70;;;18.70;99.90;;;;;;5019019;28;20057;-75
2021/04/05 01:48:40;;;;;;;16.17;5.20;;;18.40;99.90;;;;;;5020786;28;20056;-78
2021/04/05 01:51:16;;;;;;;15.48;4.22;;;18.30;99.90;;;;;;5021671;28;20046;-72
2021/04/05 01:53:44;;;;;;;16.58;4.28;;;18.30;99.90;;;;;;5022943;28;20017;-74
2021/04/05 01:56:12;;;;;;;28.25;4.97;;;18.30;99.90;;;;;;5022086;28;20029;-73
2021/04/05 01:58:42;;;;;;;21.77;5.60;;;18.10;99.90;;;;;;5025705;28;20053;-75
2021/04/05 02:01:11;;;;;;;27.55;5.30;;;18.10;99.90;;;;;;5020934;28;20496;-72
2021/04/05 02:03:39;;;;;;;24.95;5.30;;;18.00;99.90;;;;;;5018215;28;20297;-72
2021/04/05 02:06:11;;;;;;;22.40;5.47;;;17.90;99.90;;;;;;5011037;28;20664;-74
2021/04/05 02:08:38;;;;;;;26.10;5.93;;;17.80;99.90;;;;;;5013439;28;20510;-75
2021/04/05 02:11:19;;;;;;;31.83;4.88;;;17.50;99.90;;;;;;5024591;28;20439;-68
2021/04/05 02:13:48;;;;;;;21.08;5.38;;;17.30;99.90;;;;;;5009800;28;20037;-70
2021/04/05 02:16:16;;;;;;;30.45;5.72;;;17.20;99.90;;;;;;5019209;28;20021;-72
2021/04/05 02:18:44;;;;;;;19.30;5.38;;;17.10;99.90;;;;;;5022183;28;20037;-68
2021/04/05 02:21:22;;;;;;;23.98;5.43;;;17.10;99.90;;;;;;5024242;28;20033;-71
2021/04/05 02:23:53;;;;;;;24.15;7.13;;;17.10;99.90;;;;;;5022116;28;20488;-68
2021/04/05 02:26:22;;;;;;;27.67;6.22;;;16.90;99.90;;;;;;5020211;28;20029;-70
2021/04/05 02:28:51;;;;;;;34.78;6.57;;;16.90;99.90;;;;;;5010501;28;20029;-72
2021/04/05 02:31:20;;;;;;;27.08;5.97;;;16.80;99.90;;;;;;5017082;28;20033;-70
2021/04/05 02:33:48;;;;;;;23.23;5.28;;;16.80;99.90;;;;;;5024180;28;20108;-70
2021/04/05 02:36:23;;;;;;;24.83;6.05;;;16.60;99.90;;;;;;5018753;28;20966;-70
2021/04/05 02:38:51;;;;;;;23.00;4.97;;;16.60;99.90;;;;;;5004055;28;20071;-69
2021/04/05 02:41:19;;;;;;;22.42;6.20;;;16.50;99.90;;;;;;5009874;28;20041;-69
2021/04/05 02:43:47;;;;;;;36.70;8.37;;;16.50;99.90;;;;;;5024123;28;20045;-69
2021/04/05 02:46:19;;;;;;;19.42;6.03;;;16.50;99.90;;;;;;5025699;28;20049;-68
2021/04/05 02:48:51;;;;;;;29.48;7.38;;;16.50;99.90;;;;;;5024118;28;20125;-69
2021/04/05 02:51:18;;;;;;;34.42;6.85;;;16.50;99.90;;;;;;5021673;28;20029;-69
2021/04/05 02:53:52;;;;;;;22.23;6.22;;;16.50;99.90;;;;;;5004110;28;20060;-73
2021/04/05 02:56:19;;;;;;;27.65;6.45;;;16.30;99.90;;;;;;5021527;28;20021;-76
2021/04/05 02:58:51;;;;;;;40.67;7.82;;;16.30;99.90;;;;;;5019733;28;20108;-71
2021/04/05 03:01:18;;;;;;;25.75;5.88;;;16.30;99.90;;;;;;5019163;28;20063;-70
2021/04/05 03:03:46;;;;;;;25.65;6.75;;;16.30;99.90;;;;;;5013779;28;20065;-72
2021/04/05 03:06:18;;;;;;;47.43;8.17;;;16.20;99.90;;;;;;5014140;28;20032;-72
2021/04/05 03:08:46;;;;;;;26.75;7.50;;;16.20;99.90;;;;;;5015849;28;20284;-71
2021/04/05 03:11:15;;;;;;;32.33;8.10;;;16.20;99.90;;;;;;5007884;28;20054;-71
2021/04/05 03:13:41;;;;;;;;;;;16.20;99.90;;;;;;5005932;28;20029;-72
2021/04/05 03:16:12;;;;;;;29.45;5.88;;;16.20;99.90;;;;;;5017294;28;20000;-74
2021/04/05 03:18:40;;;;;;;28.30;6.15;;;16.20;99.90;;;;;;5022916;28;20032;-73
2021/04/05 03:21:08;;;;;;;28.05;7.65;;;16.10;99.90;;;;;;5023865;28;20065;-70
2021/04/05 03:23:35;;;;;;;28.13;5.93;;;16.20;99.90;;;;;;5008630;28;20025;-69
2021/04/05 03:26:02;;;;;;;28.42;6.35;;;16.20;99.90;;;;;;5011721;28;20052;-70
2021/04/05 03:28:29;;;;;;;24.05;5.28;;;16.10;99.90;;;;;;5017029;28;20026;-70
2021/04/05 03:30:59;;;;;;;29.10;6.22;;;15.90;99.90;;;;;;5019817;28;20025;-69
2021/04/05 03:33:50;;;;;;;31.85;6.95;;;16.00;99.90;;;;;;5023211;28;20033;-69
2021/04/05 03:36:57;;;;;;;33.47;8.50;;;16.10;99.90;;;;;;5019148;28;20090;-68
2021/04/05 03:39:24;;;;;;;28.48;6.70;;;16.10;99.90;;;;;;4930579;29;20099;-75
2021/04/05 03:42:02;;;;;;;22.05;6.35;;;16.10;99.90;;;;;;5000149;28;20049;-68
2021/04/05 04:19:38;;;;;;;27.05;7.47;;;15.60;99.90;;;;;;5008316;28;20655;-68
2021/04/05 06:33:37;;;;;;;33.35;8.55;;;14.00;99.90;;;;;;5014832;28;20056;-68
2021/04/05 07:01:38;;;;;;;37.88;9.70;;;14.20;99.90;;;;;;5007596;28;20112;-67
2021/04/05 08:09:00;;;;;;;20.75;8.02;;;15.20;99.90;;;;;;5009691;28;20049;-67
2021/04/05 08:12:05;;;;;;;27.60;8.68;;;15.20;99.90;;;;;;5012138;28;20060;-67
2021/04/05 08:14:47;;;;;;;37.17;8.95;;;15.30;99.90;;;;;;4986547;28;20048;-67
2021/04/05 08:17:43;;;;;;;25.98;9.52;;;15.20;99.90;;;;;;5021234;28;20033;-67
2021/04/05 08:20:31;;;;;;;37.40;9.35;;;15.20;99.90;;;;;;4995609;28;20049;-67
2021/04/05 08:23:25;;;;;;;31.20;9.57;;;15.20;99.90;;;;;;5020916;28;20091;-66
2021/04/05 08:26:27;;;;;;;27.42;8.70;;;15.10;99.90;;;;;;5017080;28;20040;-67
2021/04/05 08:29:30;;;;;;;28.27;9.85;;;15.10;99.90;;;;;;5018102;28;20052;-67
2021/04/05 08:32:16;;;;;;;29.40;7.72;;;15.10;99.90;;;;;;5018210;28;20029;-68
2021/04/05 08:35:10;;;;;;;36.20;9.52;;;15.20;99.90;;;;;;5010814;28;20112;-70
2021/04/05 08:38:03;;;;;;;36.17;8.80;;;15.20;99.90;;;;;;5009089;28;20029;-67
2021/04/05 08:40:44;;;;;;;35.78;9.48;;;15.20;99.90;;;;;;5011570;28;20041;-67
2021/04/05 08:43:51;;;;;;;25.63;7.82;;;15.20;99.90;;;;;;5003797;28;20488;-67
2021/04/05 08:46:24;;;;;;;32.03;8.13;;;15.30;99.90;;;;;;5007370;28;20053;-67
2021/04/05 08:48:57;;;;;;;35.00;9.98;;;15.20;99.90;;;;;;5010762;28;20029;-67
2021/04/05 08:51:42;;;;;;;27.25;7.53;;;15.30;99.90;;;;;;5004820;28;20113;-67
2021/04/05 08:54:10;;;;;;;31.30;9.00;;;15.30;99.90;;;;;;5001980;28;20770;-68
2021/04/05 08:56:57;;;;;;;30.35;9.00;;;15.30;99.90;;;;;;5022106;28;20461;-67
2021/04/05 08:59:30;;;;;;;26.48;7.80;;;15.30;99.90;;;;;;5013415;28;20033;-67
2021/04/05 09:02:08;;;;;;;28.48;7.57;;;15.20;99.90;;;;;;5015139;28;20724;-67
2021/04/05 09:04:35;;;;;;;24.92;8.48;;;15.20;99.90;;;;;;5015661;28;20037;-67
2021/04/05 09:07:05;;;;;;;26.83;9.30;;;15.10;99.90;;;;;;5003181;28;20497;-67
2021/04/05 09:09:35;;;;;;;22.83;7.47;;;15.20;99.90;;;;;;5007141;28;20034;-67
2021/04/05 09:12:05;;;;;;;29.30;7.93;;;15.30;99.90;;;;;;4995556;28;20099;-67
2021/04/05 09:14:37;;;;;;;22.90;7.40;;;15.30;99.90;;;;;;5022523;28;20522;-67
2021/04/05 09:17:27;;;;;;;29.30;9.20;;;15.20;99.90;;;;;;5015116;28;20124;-67
2021/04/05 09:20:03;;;;;;;25.80;7.50;;;15.20;99.90;;;;;;4977134;28;20042;-66
2021/04/05 09:22:49;;;;;;;26.10;7.68;;;15.30;99.90;;;;;;5022733;28;20033;-67
2021/04/05 09:25:49;;;;;;;24.50;7.80;;;15.40;99.90;;;;;;5022583;28;20114;-66
2021/04/05 09:28:39;;;;;;;22.42;6.90;;;15.20;99.90;;;;;;5015492;28;20025;-67
2021/04/05 09:31:24;;;;;;;27.58;8.10;;;15.40;99.90;;;;;;5005739;28;20021;-67
2021/04/05 09:34:33;;;;;;;23.73;8.07;;;15.40;99.90;;;;;;5006932;28;20022;-67
2021/04/05 09:37:36;;;;;;;30.40;8.00;;;15.50;99.90;;;;;;5005928;28;20041;-66
2021/04/05 09:40:21;;;;;;;27.35;7.97;;;15.50;99.90;;;;;;5000028;28;20035;-67
2021/04/05 09:43:16;;;;;;;19.38;7.18;;;15.50;99.90;;;;;;5000208;28;20604;-70
2021/04/05 09:46:02;;;;;;;24.40;7.38;;;15.40;99.90;;;;;;5006292;28;20096;-68
2021/04/05 09:48:45;;;;;;;22.17;8.13;;;15.40;99.90;;;;;;4995501;28;20074;-69
2021/04/05 09:51:21;;;;;;;26.00;8.30;;;15.50;99.90;;;;;;5004562;28;20026;-68
2021/04/05 09:54:08;;;;;;;26.25;8.52;;;15.50;99.90;;;;;;5006967;28;20126;-67
2021/04/05 09:56:42;;;;;;;28.05;8.90;;;15.50;99.90;;;;;;5008179;28;20061;-67
2021/04/05 09:59:16;;;;;;;26.23;8.65;;;15.50;99.90;;;;;;5002659;28;20476;-68
2021/04/05 10:01:50;;;;;;;24.73;8.38;;;15.40;99.90;;;;;;5000669;28;20046;-68
2021/04/05 10:04:24;;;;;;;26.55;8.07;;;15.50;99.90;;;;;;4987333;28;20029;-67
2021/04/05 10:06:52;;;;;;;24.20;8.00;;;15.40;99.90;;;;;;5005790;28;20034;-68
2021/04/05 10:09:25;;;;;;;30.25;9.57;;;15.50;99.90;;;;;;5003389;28;20026;-68
2021/04/05 10:11:54;;;;;;;34.25;9.27;;;15.20;99.90;;;;;;5005832;28;20469;-67
2021/04/05 10:14:23;;;;;;;28.35;9.82;;;15.30;99.90;;;;;;5006372;28;20017;-68
2021/04/05 10:16:53;;;;;;;28.67;8.25;;;15.40;99.90;;;;;;5004805;28;20045;-67
2021/04/05 10:19:41;;;;;;;25.70;9.52;;;15.40;99.90;;;;;;5003274;28;20077;-66
2021/04/05 10:22:16;;;;;;;27.23;8.23;;;15.40;99.90;;;;;;5004826;28;20030;-68
2021/04/05 10:24:44;;;;;;;30.88;9.25;;;15.40;99.90;;;;;;5005787;28;20037;-68
2021/04/05 10:27:15;;;;;;;34.22;9.50;;;15.30;99.90;;;;;;5000053;28;20444;-67
2021/04/05 10:29:44;;;;;;;30.92;8.75;;;15.40;99.90;;;;;;4995305;28;20050;-67
2021/04/05 10:32:15;;;;;;;31.80;8.93;;;15.40;99.90;;;;;;4999536;28;20025;-68
2021/04/05 10:34:45;;;;;;;31.75;9.70;;;15.40;99.90;;;;;;4997819;28;20694;-68
2021/04/05 10:37:16;;;;;;;28.23;8.43;;;15.40;99.90;;;;;;5003640;28;20702;-68
2021/04/05 10:39:54;;;;;;;32.30;9.65;;;15.30;99.90;;;;;;5000630;28;20097;-67
2021/04/05 10:42:37;;;;;;;32.70;10.45;;;15.30;99.90;;;;;;5000024;28;20108;-67
2021/04/05 10:45:10;;;;;;;40.25;10.07;;;15.40;99.90;;;;;;5003317;28;20045;-67
2021/04/05 10:48:07;;;;;;;34.33;9.88;;;15.40;99.90;;;;;;5001922;28;20057;-67
2021/04/05 10:50:44;;;;;;;35.55;11.35;;;15.40;99.90;;;;;;4978319;28;20080;-64
2021/04/05 10:53:15;;;;;;;27.42;10.40;;;15.30;99.90;;;;;;4991011;28;20038;-67
2021/04/05 10:55:49;;;;;;;37.72;13.80;;;15.20;99.90;;;;;;4975514;28;20127;-67
2021/04/05 10:58:20;;;;;;;35.88;10.38;;;15.20;99.90;;;;;;5000262;28;20388;-67
2021/04/05 11:00:54;;;;;;;43.00;11.75;;;15.20;99.90;;;;;;4986895;28;20049;-68
2021/04/05 11:03:26;;;;;;;33.25;11.18;;;15.20;99.90;;;;;;4987353;28;20041;-68
2021/04/05 11:05:58;;;;;;;39.10;11.65;;;15.30;99.90;;;;;;4990875;28;20546;-67
2021/04/05 11:08:28;;;;;;;44.35;12.40;;;15.30;99.90;;;;;;4996009;28;20133;-67
2021/04/05 11:11:23;;;;;;;44.50;12.55;;;15.20;99.90;;;;;;4993035;28;20018;-69
2021/04/05 11:13:52;;;;;;;33.30;11.70;;;15.20;99.90;;;;;;4999378;28;20042;-66
2021/04/05 11:16:21;;;;;;;36.50;12.35;;;15.20;99.90;;;;;;4998464;28;20084;-67
2021/04/05 11:18:54;;;;;;;29.08;12.13;;;15.20;99.90;;;;;;5004901;28;20034;-68
2021/04/05 11:21:44;;;;;;;48.70;13.73;;;15.20;99.90;;;;;;4989658;28;20074;-68
2021/04/05 11:24:12;;;;;;;31.40;13.93;;;15.20;99.90;;;;;;4989198;28;20045;-68
2021/04/05 11:26:42;;;;;;;46.42;15.38;;;15.00;99.90;;;;;;4979543;28;20026;-67
2021/04/05 11:29:13;;;;;;;35.47;14.82;;;15.00;99.90;;;;;;4994056;28;20042;-67
2021/04/05 11:31:42;;;;;;;35.88;15.48;;;15.00;99.90;;;;;;4999824;28;20037;-67
2021/04/05 11:34:09;;;;;;;30.42;14.98;;;14.80;99.90;;;;;;5001412;28;20060;-67
2021/04/05 11:36:40;;;;;;;42.63;17.55;;;14.90;99.90;;;;;;5000431;28;20029;-67
2021/04/05 11:39:11;;;;;;;36.47;17.75;;;14.90;99.90;;;;;;4982047;28;20031;-68
2021/04/05 11:41:39;;;;;;;34.03;17.08;;;14.90;99.90;;;;;;4979289;28;20046;-68
2021/04/05 11:44:07;;;;;;;41.15;16.33;;;14.90;99.90;;;;;;4977648;28;20537;-68
2021/04/05 11:46:38;;;;;;;34.58;15.07;;;14.80;99.90;;;;;;4979290;28;20388;-68
2021/04/05 11:49:10;;;;;;;42.08;16.67;;;14.90;99.90;;;;;;4978548;28;20034;-67
2021/04/05 11:52:16;;;;;;;38.97;15.43;;;14.80;99.90;;;;;;4977765;28;20811;-67
2021/04/05 11:54:45;;;;;;;37.72;17.00;;;14.80;99.90;;;;;;4979550;28;20529;-67
2021/04/05 11:57:14;;;;;;;34.40;14.75;;;14.90;99.90;;;;;;4977601;28;20160;-69
2021/04/05 11:59:48;;;;;;;41.35;17.33;;;14.90;99.90;;;;;;4981592;28;20034;-67
2021/04/05 12:02:30;;;;;;;39.13;15.73;;;15.00;99.90;;;;;;4978622;28;20038;-67
2021/04/05 12:05:04;;;;;;;36.90;17.65;;;15.00;99.90;;;;;;4977320;28;20537;-67
2021/04/05 12:07:32;;;;;;;36.88;14.98;;;15.00;99.90;;;;;;4978683;28;20505;-66
2021/04/05 12:10:08;;;;;;;37.80;16.58;;;15.10;99.90;;;;;;4980359;28;20825;-66
2021/04/05 12:12:47;;;;;;;32.15;13.82;;;15.10;99.90;;;;;;4980489;28;20038;-66
2021/04/05 12:15:19;;;;;;;35.50;15.45;;;15.10;99.90;;;;;;4980103;28;20544;-66
2021/04/05 12:17:54;;;;;;;35.08;14.00;;;15.10;99.90;;;;;;4979633;28;20050;-66
2021/04/05 12:20:26;;;;;;;30.25;12.00;;;15.10;99.90;;;;;;4978126;28;20034;-66
2021/04/05 12:22:55;;;;;;;29.55;11.57;;;15.00;99.90;;;;;;4980663;28;20026;-67
2021/04/05 12:25:38;;;;;;;33.60;12.85;;;14.90;99.90;;;;;;4981519;28;20032;-67
2021/04/05 12:28:09;;;;;;;30.58;12.38;;;14.90;99.90;;;;;;4979237;28;20029;-65
2021/04/05 12:30:38;;;;;;;28.45;12.48;;;14.90;99.90;;;;;;5001519;28;20067;-65
2021/04/05 12:33:09;;;;;;;29.65;10.93;;;14.80;99.90;;;;;;4999504;28;20111;-66
2021/04/05 12:35:36;;;;;;;37.47;12.60;;;14.80;99.90;;;;;;4982358;28;20041;-67
2021/04/05 12:38:06;;;;;;;27.30;10.88;;;14.70;99.90;;;;;;5000209;28;20030;-67
2021/04/05 12:40:37;;;;;;;32.88;11.07;;;14.60;99.90;;;;;;4998785;28;20041;-66
2021/04/05 12:43:05;;;;;;;30.35;9.20;;;14.60;99.90;;;;;;5000326;28;20106;-66
2021/04/05 12:45:34;;;;;;;32.42;10.80;;;14.60;99.90;;;;;;5000880;28;20399;-66
2021/04/05 12:48:02;;;;;;;30.23;9.90;;;14.60;99.90;;;;;;5001241;28;20048;-65
2021/04/05 12:50:33;;;;;;;35.45;10.15;;;14.50;99.90;;;;;;5000191;28;20033;-66
2021/04/05 12:53:05;;;;;;;27.55;9.25;;;14.40;99.90;;;;;;4999861;28;20021;-66
2021/04/05 12:55:42;;;;;;;36.65;9.98;;;14.50;99.90;;;;;;5001408;28;20099;-65
2021/04/05 12:58:09;;;;;;;26.00;8.63;;;14.50;99.90;;;;;;4998272;28;20100;-65
2021/04/05 13:00:41;;;;;;;31.58;9.93;;;14.60;99.90;;;;;;5000664;28;20084;-65
2021/04/05 13:03:29;;;;;;;28.58;9.82;;;14.50;99.90;;;;;;5004035;28;20034;-66
2021/04/05 13:06:04;;;;;;;29.05;8.50;;;14.50;99.90;;;;;;5001935;28;20021;-66
2021/04/05 13:08:36;;;;;;;27.83;8.93;;;14.50;99.90;;;;;;5002568;28;20026;-65
2021/04/05 13:11:07;;;;;;;32.38;9.10;;;14.50;99.90;;;;;;5004683;28;20045;-70
2021/04/05 13:13:38;;;;;;;35.75;9.70;;;14.60;99.90;;;;;;5006056;28;20062;-69
2021/04/05 13:16:23;;;;;;;37.15;9.63;;;14.60;99.90;;;;;;5002405;28;20025;-69
2021/04/05 13:18:53;;;;;;;33.70;9.77;;;14.60;99.90;;;;;;5004671;28;20104;-69
2021/04/05 13:21:21;;;;;;;36.95;8.70;;;14.70;99.90;;;;;;4985546;28;20045;-69
2021/04/05 13:23:52;;;;;;;27.77;8.73;;;14.80;99.90;;;;;;5001937;28;20025;-71
2021/04/05 13:26:50;;;;;;;21.98;7.70;;;14.90;99.90;;;;;;5004176;28;20029;-69
2021/04/05 13:29:32;;;;;;;32.25;9.68;;;14.80;99.90;;;;;;4982482;28;20054;-70
2021/04/05 13:32:07;;;;;;;30.10;7.88;;;14.80;99.90;;;;;;4990745;28;20026;-71
2021/04/05 13:34:36;;;;;;;23.73;8.05;;;14.80;99.90;;;;;;4989951;28;20033;-69
2021/04/05 13:37:10;;;;;;;25.58;8.20;;;14.60;99.90;;;;;;4989759;28;20061;-69
2021/04/05 13:39:38;;;;;;;35.60;9.45;;;14.70;99.90;;;;;;4990331;28;20132;-69
2021/04/05 13:42:15;;;;;;;36.90;8.80;;;14.50;99.90;;;;;;4988119;28;20357;-69
2021/04/05 13:44:43;;;;;;;40.70;9.20;;;14.60;99.90;;;;;;4987101;28;20036;-69
2021/04/05 13:47:11;;;;;;;31.60;9.00;;;14.60;99.90;;;;;;4990447;28;20102;-70
2021/04/05 13:49:51;;;;;;;37.40;8.77;;;14.60;99.90;;;;;;4987597;28;20289;-74
2021/04/05 13:52:20;;;;;;;28.85;7.65;;;14.50;99.90;;;;;;4989401;28;20176;-70
2021/04/05 13:54:54;;;;;;;31.45;8.18;;;14.50;99.90;;;;;;4988957;28;20576;-70
2021/04/05 13:57:22;;;;;;;39.45;8.82;;;14.50;99.90;;;;;;4988813;28;20037;-72
2021/04/05 14:00:13;;;;;;;23.23;7.30;;;14.60;99.90;;;;;;4987089;28;20037;-71
2021/04/05 14:03:05;;;;;;;38.70;8.75;;;14.70;99.90;;;;;;4989172;28;20038;-71
2021/04/05 14:05:42;;;;;;;33.30;8.98;;;14.80;99.90;;;;;;4980230;28;20518;-71
2021/04/05 14:08:31;;;;;;;34.60;8.07;;;14.80;99.90;;;;;;4985129;28;20489;-67
2021/04/05 14:11:10;;;;;;;44.42;9.60;;;15.00;99.90;;;;;;4987933;28;20030;-69
2021/04/05 14:13:37;;;;;;;48.28;12.15;;;15.00;99.90;;;;;;4987828;28;20547;-68
2021/04/05 14:16:22;;;;;;;26.15;8.05;;;15.10;99.90;;;;;;4987402;28;20026;-69
2021/04/05 14:51:28;;;;;;;31.05;8.25;;;15.50;99.90;;;;;;4983800;28;20636;-75
2021/04/05 14:54:03;;;;;;;32.15;7.95;;;15.70;99.90;;;;;;4983356;28;20031;-69
2021/04/05 14:56:33;;;;;;;31.73;7.20;;;15.80;99.90;;;;;;4984541;28;20026;-71
2021/04/05 14:59:01;;;;;;;30.67;7.10;;;15.80;99.90;;;;;;4991950;28;20052;-69
2021/04/05 15:01:42;;;;;;;31.42;8.18;;;16.10;99.90;;;;;;4989979;28;20623;-68
2021/04/05 15:04:17;;;;;;;34.13;7.18;;;16.10;99.90;;;;;;4998200;28;20053;-69
2021/04/05 15:06:56;;;;;;;27.23;7.18;;;16.30;99.90;;;;;;4999455;28;20046;-70
2021/04/05 15:09:26;;;;;;;;;;;16.30;99.90;;;;;;4989043;28;20593;-84
